sensor_id;sensor_type;location;lat;lon;timestamp;P1;durP1;ratioP1;P2;durP2;ratioP2
41966;SDS011;27656;53.068;8.818;2023-03-12T00:01:56;5.40;;;2.40;;
41966;SDS011;27656;53.068;8.818;2023-03-12T00:04:24;6.77;;;2.43;;
41966;SDS011;27656;53.068;8.818;2023-03-12T00:06:51;8.53;;;2.57;;
41966;SDS011;27656;53.068;8.818;2023-03-12T00:09:17;4.63;;;2.33;;
41966;SDS011;27656;53.068;8.818;2023-03-12T00:11:44;4.60;;;2.50;;
41966;SDS011;27656;53.068;8.818;2023-03-12T00:14:10;4.53;;;2.33;;
41966;SDS011;27656;53.068;8.818;2023-03-12T00:16:37;4.70;;;2.80;;
41966;SDS011;27656;53.068;8.818;2023-03-12T00:19:03;6.77;;;3.07;;
41966;SDS011;27656;53.068;8.818;2023-03-12T00:21:30;4.60;;;2.60;;
41966;SDS011;27656;53.068;8.818;2023-03-12T00:23:56;4.50;;;3.07;;
41966;SDS011;27656;53.068;8.818;2023-03-12T00:26:23;4.40;;;2.50;;
41966;SDS011;27656;53.068;8.818;2023-03-12T00:28:49;4.47;;;2.57;;
41966;SDS011;27656;53.068;8.818;2023-03-12T00:33:44;10.50;;;3.10;;
41966;SDS011;27656;53.068;8.818;2023-03-12T00:36:11;6.27;;;2.70;;
41966;SDS011;27656;53.068;8.818;2023-03-12T00:38:37;6.80;;;2.53;;
41966;SDS011;27656;53.068;8.818;2023-03-12T00:41:04;5.27;;;2.67;;
41966;SDS011;27656;53.068;8.818;2023-03-12T00:43:30;5.00;;;2.43;;
41966;SDS011;27656;53.068;8.818;2023-03-12T00:45:56;2.67;;;2.37;;
41966;SDS011;27656;53.068;8.818;2023-03-12T00:48:23;3.40;;;2.50;;
41966;SDS011;27656;53.068;8.818;2023-03-12T00:50:50;6.03;;;2.73;;
41966;SDS011;27656;53.068;8.818;2023-03-12T00:53:16;5.10;;;2.27;;
41966;SDS011;27656;53.068;8.818;2023-03-12T00:55:43;4.33;;;2.40;;
41966;SDS011;27656;53.068;8.818;2023-03-12T00:58:09;7.10;;;3.07;;
41966;SDS011;27656;53.068;8.818;2023-03-12T01:00:36;5.80;;;2.57;;
41966;SDS011;27656;53.068;8.818;2023-03-12T01:03:02;7.93;;;2.80;;
41966;SDS011;27656;53.068;8.818;2023-03-12T01:05:29;7.83;;;2.63;;
41966;SDS011;27656;53.068;8.818;2023-03-12T01:07:59;7.90;;;3.07;;
41966;SDS011;27656;53.068;8.818;2023-03-12T01:10:26;8.30;;;2.70;;
41966;SDS011;27656;53.068;8.818;2023-03-12T01:12:52;14.70;;;3.53;;
41966;SDS011;27656;53.068;8.818;2023-03-12T01:15:19;6.73;;;3.07;;
41966;SDS011;27656;53.068;8.818;2023-03-12T01:17:45;8.03;;;3.30;;
41966;SDS011;27656;53.068;8.818;2023-03-12T01:20:12;7.00;;;3.00;;
41966;SDS011;27656;53.068;8.818;2023-03-12T01:22:38;8.07;;;3.30;;
41966;SDS011;27656;53.068;8.818;2023-03-12T01:25:05;4.33;;;2.77;;
41966;SDS011;27656;53.068;8.818;2023-03-12T01:27:32;5.00;;;2.70;;
41966;SDS011;27656;53.068;8.818;2023-03-12T01:29:58;5.80;;;2.53;;
41966;SDS011;27656;53.068;8.818;2023-03-12T01:32:25;8.57;;;3.10;;
41966;SDS011;27656;53.068;8.818;2023-03-12T01:34:52;5.33;;;3.10;;
41966;SDS011;27656;53.068;8.818;2023-03-12T01:37:18;5.37;;;2.60;;
41966;SDS011;27656;53.068;8.818;2023-03-12T01:39:45;3.43;;;2.80;;
41966;SDS011;27656;53.068;8.818;2023-03-12T01:42:11;6.57;;;2.80;;
41966;SDS011;27656;53.068;8.818;2023-03-12T01:47:24;8.33;;;3.60;;
41966;SDS011;27656;53.068;8.818;2023-03-12T01:49:52;6.50;;;3.57;;
41966;SDS011;27656;53.068;8.818;2023-03-12T01:52:20;5.83;;;3.20;;
41966;SDS011;27656;53.068;8.818;2023-03-12T01:54:53;5.77;;;3.30;;
41966;SDS011;27656;53.068;8.818;2023-03-12T01:57:23;5.27;;;3.30;;
41966;SDS011;27656;53.068;8.818;2023-03-12T01:59:56;9.83;;;3.40;;
41966;SDS011;27656;53.068;8.818;2023-03-12T02:02:25;10.43;;;4.00;;
41966;SDS011;27656;53.068;8.818;2023-03-12T02:05:16;6.97;;;3.80;;
41966;SDS011;27656;53.068;8.818;2023-03-12T02:07:43;9.77;;;4.87;;
41966;SDS011;27656;53.068;8.818;2023-03-12T02:10:10;10.77;;;5.57;;
41966;SDS011;27656;53.068;8.818;2023-03-12T02:12:36;16.00;;;8.07;;
41966;SDS011;27656;53.068;8.818;2023-03-12T02:15:03;23.30;;;9.80;;
41966;SDS011;27656;53.068;8.818;2023-03-12T02:17:30;20.60;;;8.83;;
41966;SDS011;27656;53.068;8.818;2023-03-12T02:20:03;19.53;;;8.07;;
41966;SDS011;27656;53.068;8.818;2023-03-12T02:22:38;24.17;;;10.50;;
41966;SDS011;27656;53.068;8.818;2023-03-12T02:27:56;18.37;;;7.80;;
41966;SDS011;27656;53.068;8.818;2023-03-12T02:30:24;20.87;;;7.60;;
41966;SDS011;27656;53.068;8.818;2023-03-12T02:32:52;16.93;;;8.27;;
41966;SDS011;27656;53.068;8.818;2023-03-12T02:35:19;19.27;;;8.93;;
41966;SDS011;27656;53.068;8.818;2023-03-12T02:37:47;21.53;;;10.13;;
41966;SDS011;27656;53.068;8.818;2023-03-12T02:40:16;20.93;;;8.90;;
41966;SDS011;27656;53.068;8.818;2023-03-12T02:42:48;17.50;;;7.90;;
41966;SDS011;27656;53.068;8.818;2023-03-12T02:45:15;15.13;;;7.60;;
41966;SDS011;27656;53.068;8.818;2023-03-12T02:47:41;12.23;;;5.57;;
41966;SDS011;27656;53.068;8.818;2023-03-12T02:50:08;15.63;;;6.47;;
41966;SDS011;27656;53.068;8.818;2023-03-12T02:52:35;13.10;;;6.20;;
41966;SDS011;27656;53.068;8.818;2023-03-12T02:55:03;13.77;;;7.33;;
41966;SDS011;27656;53.068;8.818;2023-03-12T02:57:30;18.07;;;7.63;;
41966;SDS011;27656;53.068;8.818;2023-03-12T02:59:57;12.83;;;5.53;;
41966;SDS011;27656;53.068;8.818;2023-03-12T03:02:24;11.67;;;5.40;;
41966;SDS011;27656;53.068;8.818;2023-03-12T03:04:50;11.00;;;5.60;;
41966;SDS011;27656;53.068;8.818;2023-03-12T03:07:16;16.70;;;5.67;;
41966;SDS011;27656;53.068;8.818;2023-03-12T03:09:43;17.17;;;6.13;;
41966;SDS011;27656;53.068;8.818;2023-03-12T03:12:09;11.37;;;6.53;;
41966;SDS011;27656;53.068;8.818;2023-03-12T03:14:36;14.97;;;6.63;;
41966;SDS011;27656;53.068;8.818;2023-03-12T03:17:02;11.07;;;4.97;;
41966;SDS011;27656;53.068;8.818;2023-03-12T03:19:28;11.90;;;5.17;;
41966;SDS011;27656;53.068;8.818;2023-03-12T03:21:55;17.43;;;5.87;;
41966;SDS011;27656;53.068;8.818;2023-03-12T03:24:21;15.40;;;5.27;;
41966;SDS011;27656;53.068;8.818;2023-03-12T03:26:48;11.73;;;5.47;;
41966;SDS011;27656;53.068;8.818;2023-03-12T03:29:14;13.47;;;5.03;;
41966;SDS011;27656;53.068;8.818;2023-03-12T03:31:42;14.30;;;6.50;;
41966;SDS011;27656;53.068;8.818;2023-03-12T03:34:08;10.30;;;4.80;;
41966;SDS011;27656;53.068;8.818;2023-03-12T03:36:35;11.73;;;4.40;;
41966;SDS011;27656;53.068;8.818;2023-03-12T03:39:01;10.03;;;4.20;;
41966;SDS011;27656;53.068;8.818;2023-03-12T03:41:30;11.43;;;5.03;;
41966;SDS011;27656;53.068;8.818;2023-03-12T03:43:58;8.63;;;4.80;;
41966;SDS011;27656;53.068;8.818;2023-03-12T03:46:24;7.53;;;4.00;;
41966;SDS011;27656;53.068;8.818;2023-03-12T03:48:51;14.13;;;5.67;;
41966;SDS011;27656;53.068;8.818;2023-03-12T03:51:18;13.37;;;5.07;;
41966;SDS011;27656;53.068;8.818;2023-03-12T03:53:45;10.60;;;4.70;;
41966;SDS011;27656;53.068;8.818;2023-03-12T03:56:12;8.43;;;4.53;;
41966;SDS011;27656;53.068;8.818;2023-03-12T03:58:41;10.67;;;4.60;;
41966;SDS011;27656;53.068;8.818;2023-03-12T04:01:07;8.10;;;4.03;;
41966;SDS011;27656;53.068;8.818;2023-03-12T04:03:33;8.47;;;3.83;;
41966;SDS011;27656;53.068;8.818;2023-03-12T04:06:01;6.47;;;4.07;;
41966;SDS011;27656;53.068;8.818;2023-03-12T04:08:28;6.43;;;3.70;;
41966;SDS011;27656;53.068;8.818;2023-03-12T04:10:55;8.80;;;4.50;;
41966;SDS011;27656;53.068;8.818;2023-03-12T04:13:21;10.27;;;4.63;;
41966;SDS011;27656;53.068;8.818;2023-03-12T04:15:48;11.07;;;4.60;;
41966;SDS011;27656;53.068;8.818;2023-03-12T04:18:16;6.90;;;3.60;;
41966;SDS011;27656;53.068;8.818;2023-03-12T04:20:43;6.13;;;3.70;;
41966;SDS011;27656;53.068;8.818;2023-03-12T04:23:10;10.93;;;4.20;;
41966;SDS011;27656;53.068;8.818;2023-03-12T04:25:36;6.57;;;3.83;;
41966;SDS011;27656;53.068;8.818;2023-03-12T04:28:03;6.77;;;3.83;;
41966;SDS011;27656;53.068;8.818;2023-03-12T04:30:30;5.70;;;3.77;;
41966;SDS011;27656;53.068;8.818;2023-03-12T04:32:57;7.07;;;3.63;;
41966;SDS011;27656;53.068;8.818;2023-03-12T04:35:23;6.27;;;3.30;;
41966;SDS011;27656;53.068;8.818;2023-03-12T04:37:50;5.67;;;3.60;;
41966;SDS011;27656;53.068;8.818;2023-03-12T04:40:17;5.93;;;3.47;;
41966;SDS011;27656;53.068;8.818;2023-03-12T04:42:45;7.70;;;3.63;;
41966;SDS011;27656;53.068;8.818;2023-03-12T04:45:11;8.33;;;4.33;;
41966;SDS011;27656;53.068;8.818;2023-03-12T04:47:38;7.80;;;3.73;;
41966;SDS011;27656;53.068;8.818;2023-03-12T04:50:04;7.40;;;3.83;;
41966;SDS011;27656;53.068;8.818;2023-03-12T04:52:31;7.57;;;4.00;;
41966;SDS011;27656;53.068;8.818;2023-03-12T04:54:58;7.13;;;3.93;;
41966;SDS011;27656;53.068;8.818;2023-03-12T04:57:27;5.17;;;3.57;;
41966;SDS011;27656;53.068;8.818;2023-03-12T04:59:53;8.50;;;3.87;;
41966;SDS011;27656;53.068;8.818;2023-03-12T05:02:20;6.87;;;3.67;;
41966;SDS011;27656;53.068;8.818;2023-03-12T05:04:46;9.60;;;3.80;;
41966;SDS011;27656;53.068;8.818;2023-03-12T05:07:12;6.37;;;4.30;;
41966;SDS011;27656;53.068;8.818;2023-03-12T05:09:39;5.57;;;3.80;;
41966;SDS011;27656;53.068;8.818;2023-03-12T05:12:05;12.03;;;4.20;;
41966;SDS011;27656;53.068;8.818;2023-03-12T05:14:32;7.67;;;3.83;;
41966;SDS011;27656;53.068;8.818;2023-03-12T05:16:58;7.30;;;3.93;;
41966;SDS011;27656;53.068;8.818;2023-03-12T05:19:25;8.67;;;4.10;;
41966;SDS011;27656;53.068;8.818;2023-03-12T05:21:51;8.27;;;4.00;;
41966;SDS011;27656;53.068;8.818;2023-03-12T05:24:18;8.30;;;4.03;;
41966;SDS011;27656;53.068;8.818;2023-03-12T05:26:47;6.53;;;3.73;;
41966;SDS011;27656;53.068;8.818;2023-03-12T05:29:13;8.03;;;4.03;;
41966;SDS011;27656;53.068;8.818;2023-03-12T05:31:40;7.47;;;3.60;;
41966;SDS011;27656;53.068;8.818;2023-03-12T05:34:06;8.23;;;3.83;;
41966;SDS011;27656;53.068;8.818;2023-03-12T05:36:33;5.67;;;3.77;;
41966;SDS011;27656;53.068;8.818;2023-03-12T05:38:59;7.57;;;3.70;;
41966;SDS011;27656;53.068;8.818;2023-03-12T05:41:27;7.37;;;3.60;;
41966;SDS011;27656;53.068;8.818;2023-03-12T05:43:54;6.33;;;3.60;;
41966;SDS011;27656;53.068;8.818;2023-03-12T05:46:22;8.13;;;3.93;;
41966;SDS011;27656;53.068;8.818;2023-03-12T05:48:50;7.50;;;4.00;;
41966;SDS011;27656;53.068;8.818;2023-03-12T05:51:16;7.17;;;3.63;;
41966;SDS011;27656;53.068;8.818;2023-03-12T05:53:43;7.20;;;4.10;;
41966;SDS011;27656;53.068;8.818;2023-03-12T05:56:10;9.27;;;4.00;;
41966;SDS011;27656;53.068;8.818;2023-03-12T05:58:38;6.80;;;3.57;;
41966;SDS011;27656;53.068;8.818;2023-03-12T06:01:19;5.83;;;3.70;;
41966;SDS011;27656;53.068;8.818;2023-03-12T06:03:48;5.83;;;3.73;;
41966;SDS011;27656;53.068;8.818;2023-03-12T06:06:14;8.23;;;3.97;;
41966;SDS011;27656;53.068;8.818;2023-03-12T06:08:41;7.30;;;3.60;;
41966;SDS011;27656;53.068;8.818;2023-03-12T06:11:08;10.10;;;3.70;;
41966;SDS011;27656;53.068;8.818;2023-03-12T06:13:34;8.43;;;4.13;;
41966;SDS011;27656;53.068;8.818;2023-03-12T06:16:17;7.53;;;3.90;;
41966;SDS011;27656;53.068;8.818;2023-03-12T06:18:46;6.90;;;3.70;;
41966;SDS011;27656;53.068;8.818;2023-03-12T06:21:13;10.30;;;4.43;;
41966;SDS011;27656;53.068;8.818;2023-03-12T06:23:42;6.30;;;3.77;;
41966;SDS011;27656;53.068;8.818;2023-03-12T06:26:09;7.87;;;3.47;;
41966;SDS011;27656;53.068;8.818;2023-03-12T06:28:36;5.40;;;3.80;;
41966;SDS011;27656;53.068;8.818;2023-03-12T06:31:05;5.80;;;3.83;;
41966;SDS011;27656;53.068;8.818;2023-03-12T06:33:31;9.67;;;4.03;;
41966;SDS011;27656;53.068;8.818;2023-03-12T06:35:59;6.30;;;3.83;;
41966;SDS011;27656;53.068;8.818;2023-03-12T06:38:26;6.70;;;4.13;;
41966;SDS011;27656;53.068;8.818;2023-03-12T06:40:56;5.23;;;3.90;;
41966;SDS011;27656;53.068;8.818;2023-03-12T06:43:27;5.10;;;3.73;;
41966;SDS011;27656;53.068;8.818;2023-03-12T06:45:56;7.13;;;4.40;;
41966;SDS011;27656;53.068;8.818;2023-03-12T06:48:23;6.27;;;4.00;;
41966;SDS011;27656;53.068;8.818;2023-03-12T06:50:50;6.13;;;4.20;;
41966;SDS011;27656;53.068;8.818;2023-03-12T06:53:18;9.20;;;4.37;;
41966;SDS011;27656;53.068;8.818;2023-03-12T06:55:45;7.30;;;4.37;;
41966;SDS011;27656;53.068;8.818;2023-03-12T06:58:12;8.40;;;3.90;;
41966;SDS011;27656;53.068;8.818;2023-03-12T07:00:38;8.17;;;4.00;;
41966;SDS011;27656;53.068;8.818;2023-03-12T07:03:05;7.63;;;3.97;;
41966;SDS011;27656;53.068;8.818;2023-03-12T07:05:31;7.87;;;4.57;;
41966;SDS011;27656;53.068;8.818;2023-03-12T07:07:58;8.33;;;4.07;;
41966;SDS011;27656;53.068;8.818;2023-03-12T07:10:24;8.03;;;4.20;;
41966;SDS011;27656;53.068;8.818;2023-03-12T07:12:55;6.97;;;3.70;;
41966;SDS011;27656;53.068;8.818;2023-03-12T07:15:22;8.90;;;3.80;;
41966;SDS011;27656;53.068;8.818;2023-03-12T07:17:49;7.50;;;4.40;;
41966;SDS011;27656;53.068;8.818;2023-03-12T07:20:15;6.87;;;4.00;;
41966;SDS011;27656;53.068;8.818;2023-03-12T07:22:42;6.33;;;4.20;;
41966;SDS011;27656;53.068;8.818;2023-03-12T07:25:08;7.23;;;3.90;;
41966;SDS011;27656;53.068;8.818;2023-03-12T07:27:35;9.50;;;4.10;;
41966;SDS011;27656;53.068;8.818;2023-03-12T07:30:02;6.33;;;4.07;;
41966;SDS011;27656;53.068;8.818;2023-03-12T07:32:29;9.27;;;4.33;;
41966;SDS011;27656;53.068;8.818;2023-03-12T07:34:55;6.77;;;4.30;;
41966;SDS011;27656;53.068;8.818;2023-03-12T07:37:22;9.40;;;4.07;;
41966;SDS011;27656;53.068;8.818;2023-03-12T07:39:48;7.47;;;4.03;;
41966;SDS011;27656;53.068;8.818;2023-03-12T07:42:17;6.73;;;3.77;;
41966;SDS011;27656;53.068;8.818;2023-03-12T07:44:44;8.20;;;3.83;;
41966;SDS011;27656;53.068;8.818;2023-03-12T07:47:11;6.97;;;3.77;;
41966;SDS011;27656;53.068;8.818;2023-03-12T07:49:49;7.00;;;4.17;;
41966;SDS011;27656;53.068;8.818;2023-03-12T07:52:15;5.73;;;4.27;;
41966;SDS011;27656;53.068;8.818;2023-03-12T07:54:43;10.07;;;5.13;;
41966;SDS011;27656;53.068;8.818;2023-03-12T07:57:09;12.03;;;4.90;;
41966;SDS011;27656;53.068;8.818;2023-03-12T07:59:36;8.43;;;5.07;;
41966;SDS011;27656;53.068;8.818;2023-03-12T08:02:04;8.70;;;4.50;;
41966;SDS011;27656;53.068;8.818;2023-03-12T08:04:31;10.07;;;4.30;;
41966;SDS011;27656;53.068;8.818;2023-03-12T08:06:58;6.53;;;3.80;;
41966;SDS011;27656;53.068;8.818;2023-03-12T08:09:25;6.77;;;4.43;;
41966;SDS011;27656;53.068;8.818;2023-03-12T08:11:51;9.43;;;4.23;;
41966;SDS011;27656;53.068;8.818;2023-03-12T08:14:17;14.87;;;5.13;;
41966;SDS011;27656;53.068;8.818;2023-03-12T08:16:44;7.13;;;4.43;;
41966;SDS011;27656;53.068;8.818;2023-03-12T08:19:11;9.30;;;4.87;;
41966;SDS011;27656;53.068;8.818;2023-03-12T08:21:38;8.80;;;4.60;;
41966;SDS011;27656;53.068;8.818;2023-03-12T08:24:04;8.80;;;4.70;;
41966;SDS011;27656;53.068;8.818;2023-03-12T08:26:31;8.60;;;4.53;;
41966;SDS011;27656;53.068;8.818;2023-03-12T08:28:57;8.73;;;4.70;;
41966;SDS011;27656;53.068;8.818;2023-03-12T08:31:26;11.77;;;4.03;;
41966;SDS011;27656;53.068;8.818;2023-03-12T08:33:53;8.40;;;5.37;;
41966;SDS011;27656;53.068;8.818;2023-03-12T08:36:19;9.30;;;4.70;;
41966;SDS011;27656;53.068;8.818;2023-03-12T08:38:47;8.83;;;4.30;;
41966;SDS011;27656;53.068;8.818;2023-03-12T08:41:14;8.93;;;4.23;;
41966;SDS011;27656;53.068;8.818;2023-03-12T08:43:40;8.00;;;4.20;;
41966;SDS011;27656;53.068;8.818;2023-03-12T08:46:07;12.23;;;4.53;;
41966;SDS011;27656;53.068;8.818;2023-03-12T08:48:36;7.90;;;4.13;;
41966;SDS011;27656;53.068;8.818;2023-03-12T08:51:03;7.57;;;3.77;;
41966;SDS011;27656;53.068;8.818;2023-03-12T08:53:31;6.17;;;4.20;;
41966;SDS011;27656;53.068;8.818;2023-03-12T08:55:59;5.33;;;3.80;;
41966;SDS011;27656;53.068;8.818;2023-03-12T08:58:26;11.83;;;4.60;;
41966;SDS011;27656;53.068;8.818;2023-03-12T09:00:53;8.07;;;4.40;;
41966;SDS011;27656;53.068;8.818;2023-03-12T09:03:20;7.10;;;4.07;;
41966;SDS011;27656;53.068;8.818;2023-03-12T09:05:47;8.63;;;4.13;;
41966;SDS011;27656;53.068;8.818;2023-03-12T09:08:14;8.33;;;4.10;;
41966;SDS011;27656;53.068;8.818;2023-03-12T09:10:45;6.47;;;3.90;;
41966;SDS011;27656;53.068;8.818;2023-03-12T09:13:13;8.97;;;4.20;;
41966;SDS011;27656;53.068;8.818;2023-03-12T09:15:39;6.10;;;4.27;;
41966;SDS011;27656;53.068;8.818;2023-03-12T09:18:06;9.87;;;4.13;;
41966;SDS011;27656;53.068;8.818;2023-03-12T09:20:32;10.57;;;4.40;;
41966;SDS011;27656;53.068;8.818;2023-03-12T09:22:58;10.47;;;4.00;;
41966;SDS011;27656;53.068;8.818;2023-03-12T09:25:25;6.90;;;4.23;;
41966;SDS011;27656;53.068;8.818;2023-03-12T09:27:52;10.57;;;4.33;;
41966;SDS011;27656;53.068;8.818;2023-03-12T09:30:19;6.60;;;4.17;;
41966;SDS011;27656;53.068;8.818;2023-03-12T09:32:46;9.37;;;4.07;;
41966;SDS011;27656;53.068;8.818;2023-03-12T09:35:14;6.87;;;3.77;;
41966;SDS011;27656;53.068;8.818;2023-03-12T09:37:41;6.10;;;3.63;;
41966;SDS011;27656;53.068;8.818;2023-03-12T09:40:10;7.47;;;3.33;;
41966;SDS011;27656;53.068;8.818;2023-03-12T09:42:54;9.87;;;3.90;;
41966;SDS011;27656;53.068;8.818;2023-03-12T09:45:24;6.37;;;3.60;;
41966;SDS011;27656;53.068;8.818;2023-03-12T09:47:53;6.17;;;3.67;;
41966;SDS011;27656;53.068;8.818;2023-03-12T09:50:23;6.20;;;3.60;;
41966;SDS011;27656;53.068;8.818;2023-03-12T09:53:10;8.17;;;3.60;;
41966;SDS011;27656;53.068;8.818;2023-03-12T09:55:53;6.03;;;2.97;;
41966;SDS011;27656;53.068;8.818;2023-03-12T10:00:54;5.73;;;3.27;;
41966;SDS011;27656;53.068;8.818;2023-03-12T10:06:20;9.30;;;3.30;;
41966;SDS011;27656;53.068;8.818;2023-03-12T10:12:05;9.17;;;3.37;;
41966;SDS011;27656;53.068;8.818;2023-03-12T10:14:40;5.00;;;3.00;;
41966;SDS011;27656;53.068;8.818;2023-03-12T10:17:26;5.97;;;3.37;;
41966;SDS011;27656;53.068;8.818;2023-03-12T10:28:48;5.33;;;3.10;;
41966;SDS011;27656;53.068;8.818;2023-03-12T10:31:18;5.70;;;3.30;;
41966;SDS011;27656;53.068;8.818;2023-03-12T10:33:48;6.93;;;3.10;;
41966;SDS011;27656;53.068;8.818;2023-03-12T10:36:19;4.70;;;3.23;;
41966;SDS011;27656;53.068;8.818;2023-03-12T10:38:58;4.97;;;3.10;;
41966;SDS011;27656;53.068;8.818;2023-03-12T10:41:27;8.60;;;2.93;;
41966;SDS011;27656;53.068;8.818;2023-03-12T10:44:07;5.13;;;2.87;;
41966;SDS011;27656;53.068;8.818;2023-03-12T10:49:22;7.83;;;3.10;;
41966;SDS011;27656;53.068;8.818;2023-03-12T10:51:52;6.40;;;2.90;;
41966;SDS011;27656;53.068;8.818;2023-03-12T10:54:22;4.97;;;2.77;;
41966;SDS011;27656;53.068;8.818;2023-03-12T10:56:53;6.30;;;2.80;;
41966;SDS011;27656;53.068;8.818;2023-03-12T10:59:20;6.40;;;2.80;;
41966;SDS011;27656;53.068;8.818;2023-03-12T11:01:49;7.93;;;3.03;;
41966;SDS011;27656;53.068;8.818;2023-03-12T11:04:17;5.80;;;3.20;;
41966;SDS011;27656;53.068;8.818;2023-03-12T11:09:39;7.77;;;3.37;;
41966;SDS011;27656;53.068;8.818;2023-03-12T11:12:22;6.13;;;2.30;;
41966;SDS011;27656;53.068;8.818;2023-03-12T11:14:49;4.50;;;2.53;;
41966;SDS011;27656;53.068;8.818;2023-03-12T11:17:18;5.77;;;2.70;;
41966;SDS011;27656;53.068;8.818;2023-03-12T11:19:49;7.27;;;2.73;;
41966;SDS011;27656;53.068;8.818;2023-03-12T11:22:27;4.80;;;2.53;;
41966;SDS011;27656;53.068;8.818;2023-03-12T11:24:58;4.70;;;2.70;;
41966;SDS011;27656;53.068;8.818;2023-03-12T11:27:35;4.37;;;2.70;;
41966;SDS011;27656;53.068;8.818;2023-03-12T11:30:06;7.30;;;3.30;;
41966;SDS011;27656;53.068;8.818;2023-03-12T11:32:47;6.17;;;2.73;;
41966;SDS011;27656;53.068;8.818;2023-03-12T11:35:16;5.27;;;3.13;;
41966;SDS011;27656;53.068;8.818;2023-03-12T11:38:02;4.43;;;3.27;;
41966;SDS011;27656;53.068;8.818;2023-03-12T11:40:49;4.60;;;3.20;;
41966;SDS011;27656;53.068;8.818;2023-03-12T11:43:52;5.37;;;3.27;;
41966;SDS011;27656;53.068;8.818;2023-03-12T11:46:28;5.00;;;3.03;;
41966;SDS011;27656;53.068;8.818;2023-03-12T11:51:45;8.17;;;3.37;;
41966;SDS011;27656;53.068;8.818;2023-03-12T11:57:45;4.93;;;3.50;;
41966;SDS011;27656;53.068;8.818;2023-03-12T12:00:15;4.90;;;3.53;;
41966;SDS011;27656;53.068;8.818;2023-03-12T12:02:48;7.33;;;3.70;;
41966;SDS011;27656;53.068;8.818;2023-03-12T12:05:31;5.27;;;3.30;;
41966;SDS011;27656;53.068;8.818;2023-03-12T12:08:05;6.57;;;3.47;;
41966;SDS011;27656;53.068;8.818;2023-03-12T12:11:00;8.13;;;3.23;;
41966;SDS011;27656;53.068;8.818;2023-03-12T12:16:36;6.90;;;3.83;;
41966;SDS011;27656;53.068;8.818;2023-03-12T12:19:26;4.93;;;3.70;;
41966;SDS011;27656;53.068;8.818;2023-03-12T12:22:12;5.03;;;3.50;;
41966;SDS011;27656;53.068;8.818;2023-03-12T12:25:09;10.47;;;3.87;;
41966;SDS011;27656;53.068;8.818;2023-03-12T12:33:22;6.40;;;3.93;;
41966;SDS011;27656;53.068;8.818;2023-03-12T12:36:09;10.43;;;4.03;;
41966;SDS011;27656;53.068;8.818;2023-03-12T12:38:38;8.73;;;3.70;;
41966;SDS011;27656;53.068;8.818;2023-03-12T12:43:48;8.03;;;4.60;;
41966;SDS011;27656;53.068;8.818;2023-03-12T12:46:23;6.63;;;4.37;;
41966;SDS011;27656;53.068;8.818;2023-03-12T12:48:51;6.67;;;4.33;;
41966;SDS011;27656;53.068;8.818;2023-03-12T12:51:20;7.00;;;4.67;;
41966;SDS011;27656;53.068;8.818;2023-03-12T12:56:37;11.73;;;4.90;;
41966;SDS011;27656;53.068;8.818;2023-03-12T12:59:08;6.70;;;4.60;;
41966;SDS011;27656;53.068;8.818;2023-03-12T13:01:51;4.63;;;4.10;;
41966;SDS011;27656;53.068;8.818;2023-03-12T13:04:23;9.30;;;3.97;;
41966;SDS011;27656;53.068;8.818;2023-03-12T13:06:56;6.20;;;4.43;;
41966;SDS011;27656;53.068;8.818;2023-03-12T13:09:40;7.30;;;4.47;;
41966;SDS011;27656;53.068;8.818;2023-03-12T13:14:52;7.20;;;4.17;;
41966;SDS011;27656;53.068;8.818;2023-03-12T13:28:27;6.00;;;5.07;;
41966;SDS011;27656;53.068;8.818;2023-03-12T13:30:58;7.47;;;4.90;;
41966;SDS011;27656;53.068;8.818;2023-03-12T13:33:35;7.40;;;4.10;;
41966;SDS011;27656;53.068;8.818;2023-03-12T13:36:09;7.63;;;4.33;;
41966;SDS011;27656;53.068;8.818;2023-03-12T13:41:29;6.73;;;4.20;;
41966;SDS011;27656;53.068;8.818;2023-03-12T13:43:57;5.43;;;4.40;;
41966;SDS011;27656;53.068;8.818;2023-03-12T13:46:28;5.37;;;4.20;;
41966;SDS011;27656;53.068;8.818;2023-03-12T13:49:08;8.20;;;4.67;;
41966;SDS011;27656;53.068;8.818;2023-03-12T13:51:51;5.30;;;4.13;;
41966;SDS011;27656;53.068;8.818;2023-03-12T13:54:22;103.83;;;10.93;;
41966;SDS011;27656;53.068;8.818;2023-03-12T13:56:55;6.17;;;4.17;;
41966;SDS011;27656;53.068;8.818;2023-03-12T13:59:25;5.13;;;4.43;;
41966;SDS011;27656;53.068;8.818;2023-03-12T14:01:53;6.23;;;4.50;;
41966;SDS011;27656;53.068;8.818;2023-03-12T14:04:23;6.33;;;5.03;;
41966;SDS011;27656;53.068;8.818;2023-03-12T14:15:06;5.23;;;4.40;;
41966;SDS011;27656;53.068;8.818;2023-03-12T14:17:38;8.67;;;5.33;;
41966;SDS011;27656;53.068;8.818;2023-03-12T14:22:42;8.00;;;5.90;;
41966;SDS011;27656;53.068;8.818;2023-03-12T14:25:15;7.77;;;5.90;;
41966;SDS011;27656;53.068;8.818;2023-03-12T14:27:47;9.07;;;5.60;;
41966;SDS011;27656;53.068;8.818;2023-03-12T14:32:41;7.90;;;6.30;;
41966;SDS011;27656;53.068;8.818;2023-03-12T14:35:21;8.47;;;6.63;;
41966;SDS011;27656;53.068;8.818;2023-03-12T14:45:57;11.67;;;6.97;;
41966;SDS011;27656;53.068;8.818;2023-03-12T14:48:26;12.37;;;7.43;;
41966;SDS011;27656;53.068;8.818;2023-03-12T14:51:03;9.17;;;7.10;;
41966;SDS011;27656;53.068;8.818;2023-03-12T14:53:35;10.20;;;7.70;;
41966;SDS011;27656;53.068;8.818;2023-03-12T14:56:04;9.67;;;6.97;;
41966;SDS011;27656;53.068;8.818;2023-03-12T14:58:32;8.57;;;7.03;;
41966;SDS011;27656;53.068;8.818;2023-03-12T15:01:00;11.97;;;8.20;;
41966;SDS011;27656;53.068;8.818;2023-03-12T15:03:29;13.33;;;8.33;;
41966;SDS011;27656;53.068;8.818;2023-03-12T15:06:28;12.13;;;8.57;;
41966;SDS011;27656;53.068;8.818;2023-03-12T15:08:58;10.63;;;7.97;;
41966;SDS011;27656;53.068;8.818;2023-03-12T15:11:28;16.77;;;11.90;;
41966;SDS011;27656;53.068;8.818;2023-03-12T15:13:55;40.63;;;24.70;;
41966;SDS011;27656;53.068;8.818;2023-03-12T15:16:26;9.90;;;7.80;;
41966;SDS011;27656;53.068;8.818;2023-03-12T15:18:52;11.53;;;8.37;;
41966;SDS011;27656;53.068;8.818;2023-03-12T15:21:19;10.27;;;8.03;;
41966;SDS011;27656;53.068;8.818;2023-03-12T15:23:46;11.20;;;7.73;;
41966;SDS011;27656;53.068;8.818;2023-03-12T15:28:58;11.63;;;7.77;;
41966;SDS011;27656;53.068;8.818;2023-03-12T15:31:39;12.00;;;8.13;;
41966;SDS011;27656;53.068;8.818;2023-03-12T15:34:10;14.03;;;8.13;;
41966;SDS011;27656;53.068;8.818;2023-03-12T15:36:45;10.33;;;7.80;;
41966;SDS011;27656;53.068;8.818;2023-03-12T15:39:19;12.83;;;8.47;;
41966;SDS011;27656;53.068;8.818;2023-03-12T15:42:00;11.87;;;8.43;;
41966;SDS011;27656;53.068;8.818;2023-03-12T15:44:35;14.50;;;9.27;;
41966;SDS011;27656;53.068;8.818;2023-03-12T15:47:11;11.23;;;9.20;;
41966;SDS011;27656;53.068;8.818;2023-03-12T15:49:39;11.90;;;9.10;;
41966;SDS011;27656;53.068;8.818;2023-03-12T15:54:33;14.67;;;10.20;;
41966;SDS011;27656;53.068;8.818;2023-03-12T15:57:16;14.93;;;10.80;;
41966;SDS011;27656;53.068;8.818;2023-03-12T15:59:49;15.00;;;10.67;;
41966;SDS011;27656;53.068;8.818;2023-03-12T16:02:45;16.53;;;10.57;;
41966;SDS011;27656;53.068;8.818;2023-03-12T16:05:11;15.47;;;10.87;;
41966;SDS011;27656;53.068;8.818;2023-03-12T16:07:38;14.97;;;11.07;;
41966;SDS011;27656;53.068;8.818;2023-03-12T16:10:04;18.20;;;11.00;;
41966;SDS011;27656;53.068;8.818;2023-03-12T16:12:32;17.17;;;10.47;;
41966;SDS011;27656;53.068;8.818;2023-03-12T16:14:58;16.23;;;11.87;;
41966;SDS011;27656;53.068;8.818;2023-03-12T16:17:25;18.80;;;11.47;;
41966;SDS011;27656;53.068;8.818;2023-03-12T16:19:51;17.77;;;12.20;;
41966;SDS011;27656;53.068;8.818;2023-03-12T16:22:18;16.47;;;11.17;;
41966;SDS011;27656;53.068;8.818;2023-03-12T16:24:45;19.73;;;12.83;;
41966;SDS011;27656;53.068;8.818;2023-03-12T16:27:12;20.10;;;12.43;;
41966;SDS011;27656;53.068;8.818;2023-03-12T16:29:45;17.47;;;12.87;;
41966;SDS011;27656;53.068;8.818;2023-03-12T16:32:13;19.13;;;13.20;;